sensor_id;sensor_type;location;lat;lon;timestamp;pressure;altitude;pressure_sealevel;temperature;humidity
66547;BME280;53400;50.364;14.874;2022-10-28T00:01:29;99640.16;;;10.10;100.00
66547;BME280;53400;50.364;14.874;2022-10-28T00:03:56;99641.66;;;10.00;100.00
66547;BME280;53400;50.364;14.874;2022-10-28T00:06:25;99638.00;;;9.94;100.00
66547;BME280;53400;50.364;14.874;2022-10-28T00:08:52;99641.09;;;9.91;100.00
66547;BME280;53400;50.364;14.874;2022-10-28T00:11:19;99650.56;;;9.94;100.00
66547;BME280;53400;50.364;14.874;2022-10-28T00:13:46;99646.47;;;9.91;100.00
66547;BME280;53400;50.364;14.874;2022-10-28T00:16:14;99658.94;;;10.04;100.00
66547;BME280;53400;50.364;14.874;2022-10-28T00:18:41;99658.09;;;10.03;100.00
66547;BME280;53400;50.364;14.874;2022-10-28T00:21:08;99666.75;;;10.05;100.00
66547;BME280;53400;50.364;14.874;2022-10-28T00:23:36;99669.69;;;9.97;100.00
66547;BME280;53400;50.364;14.874;2022-10-28T00:26:04;99660.97;;;10.08;100.00
66547;BME280;53400;50.364;14.874;2022-10-28T00:28:31;99670.28;;;9.99;100.00
66547;BME280;53400;50.364;14.874;2022-10-28T00:31:02;99666.44;;;9.88;100.00
66547;BME280;53400;50.364;14.874;2022-10-28T00:33:29;99668.91;;;9.90;100.00
66547;BME280;53400;50.364;14.874;2022-10-28T00:35:54;99666.03;;;9.85;100.00
66547;BME280;53400;50.364;14.874;2022-10-28T00:38:20;99663.84;;;9.75;100.00
66547;BME280;53400;50.364;14.874;2022-10-28T00:40:48;99666.50;;;9.75;100.00
66547;BME280;53400;50.364;14.874;2022-10-28T00:43:14;99661.78;;;9.71;100.00
66547;BME280;53400;50.364;14.874;2022-10-28T00:45:39;99665.28;;;9.78;100.00
66547;BME280;53400;50.364;14.874;2022-10-28T00:48:05;99664.47;;;9.71;100.00
66547;BME280;53400;50.364;14.874;2022-10-28T00:50:41;99660.41;;;9.61;100.00
66547;BME280;53400;50.364;14.874;2022-10-28T00:53:11;99661.41;;;9.67;100.00
66547;BME280;53400;50.364;14.874;2022-10-28T00:55:39;99652.13;;;9.70;100.00
66547;BME280;53400;50.364;14.874;2022-10-28T00:58:08;99645.53;;;9.72;100.00
66547;BME280;53400;50.364;14.874;2022-10-28T01:00:34;99661.16;;;9.75;100.00
66547;BME280;53400;50.364;14.874;2022-10-28T01:03:00;99657.25;;;9.78;100.00
66547;BME280;53400;50.364;14.874;2022-10-28T01:05:28;99654.09;;;9.87;100.00
66547;BME280;53400;50.364;14.874;2022-10-28T01:07:58;99649.19;;;9.84;100.00
66547;BME280;53400;50.364;14.874;2022-10-28T01:10:32;99646.72;;;9.83;100.00
66547;BME280;53400;50.364;14.874;2022-10-28T01:13:05;99651.34;;;10.01;100.00
66547;BME280;53400;50.364;14.874;2022-10-28T01:15:43;99636.41;;;9.86;100.00
66547;BME280;53400;50.364;14.874;2022-10-28T01:18:18;99643.53;;;9.99;100.00
66547;BME280;53400;50.364;14.874;2022-10-28T01:24:17;99642.28;;;10.02;100.00
66547;BME280;53400;50.364;14.874;2022-10-28T01:26:59;99639.56;;;10.08;100.00
66547;BME280;53400;50.364;14.874;2022-10-28T01:29:45;99634.59;;;10.12;100.00
66547;BME280;53400;50.364;14.874;2022-10-28T01:32:16;99635.31;;;9.94;100.00
66547;BME280;53400;50.364;14.874;2022-10-28T01:34:56;99638.28;;;9.86;100.00
66547;BME280;53400;50.364;14.874;2022-10-28T01:37:29;99644.41;;;9.93;100.00
66547;BME280;53400;50.364;14.874;2022-10-28T01:40:03;99642.66;;;10.05;100.00
66547;BME280;53400;50.364;14.874;2022-10-28T01:42:36;99648.34;;;10.16;100.00
66547;BME280;53400;50.364;14.874;2022-10-28T01:45:10;99647.34;;;10.10;100.00
66547;BME280;53400;50.364;14.874;2022-10-28T01:47:44;99641.97;;;10.17;100.00
66547;BME280;53400;50.364;14.874;2022-10-28T01:50:13;99644.03;;;10.15;100.00
66547;BME280;53400;50.364;14.874;2022-10-28T01:52:41;99646.91;;;10.20;100.00
66547;BME280;53400;50.364;14.874;2022-10-28T01:55:12;99638.94;;;10.06;100.00
66547;BME280;53400;50.364;14.874;2022-10-28T01:57:41;99639.75;;;10.07;100.00
66547;BME280;53400;50.364;14.874;2022-10-28T02:00:09;99644.53;;;10.05;100.00
66547;BME280;53400;50.364;14.874;2022-10-28T02:02:36;99643.72;;;10.36;100.00
66547;BME280;53400;50.364;14.874;2022-10-28T02:08:24;99631.50;;;9.83;100.00
66547;BME280;53400;50.364;14.874;2022-10-28T02:11:00;99620.84;;;9.70;100.00
66547;BME280;53400;50.364;14.874;2022-10-28T02:13:38;99617.44;;;9.56;100.00
66547;BME280;53400;50.364;14.874;2022-10-28T02:16:15;99617.78;;;9.67;100.00
66547;BME280;53400;50.364;14.874;2022-10-28T02:18:50;99618.22;;;9.63;100.00
66547;BME280;53400;50.364;14.874;2022-10-28T02:21:29;99607.34;;;9.58;100.00
66547;BME280;53400;50.364;14.874;2022-10-28T02:24:02;99616.50;;;9.76;100.00
66547;BME280;53400;50.364;14.874;2022-10-28T02:26:34;99608.38;;;9.57;100.00
66547;BME280;53400;50.364;14.874;2022-10-28T02:29:05;99604.47;;;9.60;100.00
66547;BME280;53400;50.364;14.874;2022-10-28T02:31:35;99598.59;;;9.45;100.00
66547;BME280;53400;50.364;14.874;2022-10-28T02:34:06;99601.44;;;9.43;100.00
66547;BME280;53400;50.364;14.874;2022-10-28T02:36:38;99614.34;;;9.59;100.00
66547;BME280;53400;50.364;14.874;2022-10-28T02:39:05;99619.69;;;9.59;100.00
66547;BME280;53400;50.364;14.874;2022-10-28T02:41:36;99618.44;;;9.62;100.00
66547;BME280;53400;50.364;14.874;2022-10-28T02:44:07;99618.13;;;9.77;100.00
66547;BME280;53400;50.364;14.874;2022-10-28T02:46:35;99613.81;;;9.76;100.00
66547;BME280;53400;50.364;14.874;2022-10-28T02:49:06;99618.41;;;9.69;100.00
66547;BME280;53400;50.364;14.874;2022-10-28T02:51:37;99609.00;;;9.59;100.00
66547;BME280;53400;50.364;14.874;2022-10-28T02:54:08;99613.50;;;9.65;100.00
66547;BME280;53400;50.364;14.874;2022-10-28T02:56:39;99608.56;;;9.62;100.00
66547;BME280;53400;50.364;14.874;2022-10-28T02:59:09;99618.84;;;9.65;100.00
66547;BME280;53400;50.364;14.874;2022-10-28T03:01:36;99622.59;;;9.51;100.00
66547;BME280;53400;50.364;14.874;2022-10-28T03:04:02;99623.38;;;9.58;100.00
66547;BME280;53400;50.364;14.874;2022-10-28T03:06:29;99625.81;;;9.67;100.00
66547;BME280;53400;50.364;14.874;2022-10-28T03:08:57;99628.09;;;9.63;100.00
66547;BME280;53400;50.364;14.874;2022-10-28T03:11:23;99624.13;;;9.40;100.00
66547;BME280;53400;50.364;14.874;2022-10-28T03:13:49;99622.50;;;9.33;100.00
66547;BME280;53400;50.364;14.874;2022-10-28T03:16:15;99617.09;;;9.39;100.00
66547;BME280;53400;50.364;14.874;2022-10-28T03:18:41;99609.97;;;9.27;100.00
66547;BME280;53400;50.364;14.874;2022-10-28T03:21:08;99619.22;;;9.24;100.00
66547;BME280;53400;50.364;14.874;2022-10-28T03:23:33;99616.91;;;9.41;100.00
66547;BME280;53400;50.364;14.874;2022-10-28T03:26:01;99612.69;;;9.58;100.00
66547;BME280;53400;50.364;14.874;2022-10-28T03:28:27;99611.00;;;9.26;100.00
66547;BME280;53400;50.364;14.874;2022-10-28T03:30:53;99618.34;;;9.44;100.00
66547;BME280;53400;50.364;14.874;2022-10-28T03:33:18;99617.19;;;9.64;100.00
66547;BME280;53400;50.364;14.874;2022-10-28T03:35:45;99610.09;;;9.45;100.00
66547;BME280;53400;50.364;14.874;2022-10-28T03:38:10;99610.00;;;9.58;100.00
66547;BME280;53400;50.364;14.874;2022-10-28T03:40:36;99605.19;;;9.74;100.00
66547;BME280;53400;50.364;14.874;2022-10-28T03:43:04;99604.69;;;9.52;100.00
66547;BME280;53400;50.364;14.874;2022-10-28T03:45:29;99608.03;;;9.47;100.00
66547;BME280;53400;50.364;14.874;2022-10-28T03:47:55;99604.78;;;9.38;100.00
66547;BME280;53400;50.364;14.874;2022-10-28T03:50:21;99605.84;;;9.69;100.00
66547;BME280;53400;50.364;14.874;2022-10-28T03:52:47;99614.81;;;9.50;100.00
66547;BME280;53400;50.364;14.874;2022-10-28T03:55:13;99618.56;;;9.35;100.00
66547;BME280;53400;50.364;14.874;2022-10-28T03:57:39;99620.63;;;9.33;100.00
66547;BME280;53400;50.364;14.874;2022-10-28T04:00:07;99622.34;;;9.14;100.00
66547;BME280;53400;50.364;14.874;2022-10-28T04:02:33;99613.91;;;9.17;100.00
66547;BME280;53400;50.364;14.874;2022-10-28T04:04:59;99611.28;;;9.11;100.00
66547;BME280;53400;50.364;14.874;2022-10-28T04:07:25;99606.75;;;9.11;100.00
66547;BME280;53400;50.364;14.874;2022-10-28T04:09:52;99606.31;;;9.14;100.00
66547;BME280;53400;50.364;14.874;2022-10-28T04:12:17;99602.78;;;9.21;100.00
66547;BME280;53400;50.364;14.874;2022-10-28T04:14:44;99592.06;;;9.27;100.00
66547;BME280;53400;50.364;14.874;2022-10-28T04:17:11;99596.66;;;9.13;100.00
66547;BME280;53400;50.364;14.874;2022-10-28T04:19:37;99594.81;;;9.14;100.00
66547;BME280;53400;50.364;14.874;2022-10-28T04:22:03;99594.78;;;9.21;100.00
66547;BME280;53400;50.364;14.874;2022-10-28T04:24:29;99599.75;;;9.10;100.00
66547;BME280;53400;50.364;14.874;2022-10-28T04:26:54;99591.75;;;9.10;100.00
66547;BME280;53400;50.364;14.874;2022-10-28T04:29:20;99593.56;;;9.10;100.00
66547;BME280;53400;50.364;14.874;2022-10-28T04:31:46;99594.84;;;9.07;100.00
66547;BME280;53400;50.364;14.874;2022-10-28T04:34:14;99600.41;;;8.99;100.00
66547;BME280;53400;50.364;14.874;2022-10-28T04:36:39;99590.31;;;9.08;100.00
66547;BME280;53400;50.364;14.874;2022-10-28T04:39:05;99595.00;;;9.19;100.00
66547;BME280;53400;50.364;14.874;2022-10-28T04:41:31;99587.03;;;9.06;100.00
66547;BME280;53400;50.364;14.874;2022-10-28T04:43:57;99592.38;;;9.06;100.00
66547;BME280;53400;50.364;14.874;2022-10-28T04:46:23;99594.19;;;9.12;100.00
66547;BME280;53400;50.364;14.874;2022-10-28T04:48:49;99599.75;;;9.10;100.00
66547;BME280;53400;50.364;14.874;2022-10-28T04:51:16;99598.69;;;9.18;100.00
66547;BME280;53400;50.364;14.874;2022-10-28T04:53:42;99592.03;;;9.34;100.00
66547;BME280;53400;50.364;14.874;2022-10-28T04:56:08;99593.72;;;9.28;100.00
66547;BME280;53400;50.364;14.874;2022-10-28T04:58:34;99594.75;;;9.27;100.00
66547;BME280;53400;50.364;14.874;2022-10-28T05:01:04;99600.31;;;9.26;100.00
66547;BME280;53400;50.364;14.874;2022-10-28T05:03:30;99596.84;;;9.18;100.00
66547;BME280;53400;50.364;14.874;2022-10-28T05:05:56;99583.47;;;9.25;100.00
66547;BME280;53400;50.364;14.874;2022-10-28T05:08:23;99588.38;;;9.28;100.00
66547;BME280;53400;50.364;14.874;2022-10-28T05:10:49;99579.03;;;8.99;100.00
66547;BME280;53400;50.364;14.874;2022-10-28T05:13:15;99574.13;;;8.96;100.00
66547;BME280;53400;50.364;14.874;2022-10-28T05:15:41;99574.47;;;9.06;100.00
66547;BME280;53400;50.364;14.874;2022-10-28T05:18:07;99571.97;;;9.18;100.00
66547;BME280;53400;50.364;14.874;2022-10-28T05:20:33;99569.13;;;9.06;100.00
66547;BME280;53400;50.364;14.874;2022-10-28T05:22:59;99562.28;;;9.24;100.00
66547;BME280;53400;50.364;14.874;2022-10-28T05:25:26;99568.28;;;9.19;100.00
66547;BME280;53400;50.364;14.874;2022-10-28T05:27:52;99570.50;;;9.29;100.00
66547;BME280;53400;50.364;14.874;2022-10-28T05:30:18;99561.31;;;9.11;100.00
66547;BME280;53400;50.364;14.874;2022-10-28T05:32:45;99563.81;;;9.00;100.00
66547;BME280;53400;50.364;14.874;2022-10-28T05:35:10;99574.41;;;9.26;100.00
66547;BME280;53400;50.364;14.874;2022-10-28T05:37:37;99576.00;;;9.34;100.00
66547;BME280;53400;50.364;14.874;2022-10-28T05:40:03;99589.91;;;9.04;100.00
66547;BME280;53400;50.364;14.874;2022-10-28T05:42:30;99597.09;;;9.10;100.00
66547;BME280;53400;50.364;14.874;2022-10-28T05:44:56;99603.31;;;8.84;100.00
66547;BME280;53400;50.364;14.874;2022-10-28T05:47:22;99603.72;;;8.88;100.00
66547;BME280;53400;50.364;14.874;2022-10-28T05:49:48;99600.63;;;8.91;100.00
66547;BME280;53400;50.364;14.874;2022-10-28T05:52:14;99597.78;;;8.86;100.00
66547;BME280;53400;50.364;14.874;2022-10-28T05:54:40;99601.66;;;8.96;100.00
66547;BME280;53400;50.364;14.874;2022-10-28T05:57:06;99599.41;;;8.87;100.00
66547;BME280;53400;50.364;14.874;2022-10-28T05:59:33;99598.34;;;8.94;100.00
66547;BME280;53400;50.364;14.874;2022-10-28T06:01:59;99603.91;;;8.93;100.00
66547;BME280;53400;50.364;14.874;2022-10-28T06:04:25;99593.84;;;9.02;100.00
66547;BME280;53400;50.364;14.874;2022-10-28T06:06:53;99592.25;;;9.32;100.00
66547;BME280;53400;50.364;14.874;2022-10-28T06:09:19;99590.91;;;9.16;100.00
66547;BME280;53400;50.364;14.874;2022-10-28T06:11:45;99588.22;;;9.10;100.00
66547;BME280;53400;50.364;14.874;2022-10-28T06:14:11;99592.91;;;9.21;100.00
66547;BME280;53400;50.364;14.874;2022-10-28T06:16:38;99600.47;;;9.31;100.00
66547;BME280;53400;50.364;14.874;2022-10-28T06:19:04;99603.78;;;9.33;100.00
66547;BME280;53400;50.364;14.874;2022-10-28T06:21:30;99602.66;;;9.54;100.00
66547;BME280;53400;50.364;14.874;2022-10-28T06:23:56;99610.44;;;9.62;100.00
66547;BME280;53400;50.364;14.874;2022-10-28T06:26:22;99602.78;;;9.65;100.00
66547;BME280;53400;50.364;14.874;2022-10-28T06:28:48;99616.94;;;9.73;100.00
66547;BME280;53400;50.364;14.874;2022-10-28T06:31:14;99609.09;;;9.78;100.00
66547;BME280;53400;50.364;14.874;2022-10-28T06:33:42;99615.78;;;9.94;100.00
66547;BME280;53400;50.364;14.874;2022-10-28T06:36:08;99612.47;;;9.98;100.00
66547;BME280;53400;50.364;14.874;2022-10-28T06:38:34;99614.00;;;9.81;100.00
66547;BME280;53400;50.364;14.874;2022-10-28T06:41:00;99615.88;;;9.74;100.00
66547;BME280;53400;50.364;14.874;2022-10-28T06:43:26;99613.44;;;9.72;100.00
66547;BME280;53400;50.364;14.874;2022-10-28T06:45:52;99625.19;;;9.64;100.00
66547;BME280;53400;50.364;14.874;2022-10-28T06:48:21;99626.25;;;9.63;100.00
66547;BME280;53400;50.364;14.874;2022-10-28T06:50:49;99625.44;;;9.63;100.00
66547;BME280;53400;50.364;14.874;2022-10-28T06:53:16;99625.84;;;9.60;100.00
66547;BME280;53400;50.364;14.874;2022-10-28T06:55:42;99625.28;;;9.51;100.00
66547;BME280;53400;50.364;14.874;2022-10-28T06:58:13;99624.44;;;9.57;100.00
66547;BME280;53400;50.364;14.874;2022-10-28T07:00:46;99624.22;;;9.59;100.00
66547;BME280;53400;50.364;14.874;2022-10-28T07:03:12;99634.06;;;9.65;100.00
66547;BME280;53400;50.364;14.874;2022-10-28T07:05:38;99631.03;;;9.55;100.00
66547;BME280;53400;50.364;14.874;2022-10-28T07:08:05;99626.63;;;9.67;100.00
66547;BME280;53400;50.364;14.874;2022-10-28T07:10:31;99633.22;;;9.64;100.00
66547;BME280;53400;50.364;14.874;2022-10-28T07:12:57;99633.84;;;9.67;100.00
66547;BME280;53400;50.364;14.874;2022-10-28T07:15:23;99644.59;;;9.60;100.00
66547;BME280;53400;50.364;14.874;2022-10-28T07:17:52;99637.56;;;9.65;100.00
66547;BME280;53400;50.364;14.874;2022-10-28T07:20:19;99641.06;;;9.66;100.00
66547;BME280;53400;50.364;14.874;2022-10-28T07:22:44;99645.94;;;9.76;100.00
66547;BME280;53400;50.364;14.874;2022-10-28T07:25:13;99646.66;;;10.53;100.00
66547;BME280;53400;50.364;14.874;2022-10-28T07:27:40;99655.38;;;10.67;100.00
66547;BME280;53400;50.364;14.874;2022-10-28T07:30:07;99668.13;;;10.15;100.00
66547;BME280;53400;50.364;14.874;2022-10-28T07:32:33;99671.00;;;10.13;100.00
66547;BME280;53400;50.364;14.874;2022-10-28T07:34:59;99676.13;;;10.21;100.00
66547;BME280;53400;50.364;14.874;2022-10-28T07:37:25;99672.81;;;10.26;100.00
66547;BME280;53400;50.364;14.874;2022-10-28T07:39:51;99673.81;;;10.25;100.00
66547;BME280;53400;50.364;14.874;2022-10-28T07:42:18;99677.31;;;10.25;100.00
66547;BME280;53400;50.364;14.874;2022-10-28T07:44:45;99679.88;;;10.45;100.00
66547;BME280;53400;50.364;14.874;2022-10-28T07:47:11;99683.13;;;10.54;100.00
66547;BME280;53400;50.364;14.874;2022-10-28T07:49:37;99679.31;;;10.62;100.00
66547;BME280;53400;50.364;14.874;2022-10-28T07:52:03;99677.75;;;10.54;100.00
66547;BME280;53400;50.364;14.874;2022-10-28T07:54:29;99676.38;;;10.70;100.00
66547;BME280;53400;50.364;14.874;2022-10-28T07:56:56;99668.13;;;10.71;100.00
66547;BME280;53400;50.364;14.874;2022-10-28T07:59:24;99675.47;;;11.01;100.00
66547;BME280;53400;50.364;14.874;2022-10-28T08:01:50;99681.13;;;10.93;100.00
66547;BME280;53400;50.364;14.874;2022-10-28T08:04:16;99679.38;;;11.23;100.00
66547;BME280;53400;50.364;14.874;2022-10-28T08:06:42;99669.47;;;11.24;100.00
66547;BME280;53400;50.364;14.874;2022-10-28T08:09:08;99668.19;;;11.27;100.00
66547;BME280;53400;50.364;14.874;2022-10-28T08:11:34;99668.28;;;11.20;100.00
66547;BME280;53400;50.364;14.874;2022-10-28T08:14:01;99672.56;;;11.02;100.00
66547;BME280;53400;50.364;14.874;2022-10-28T08:16:28;99655.44;;;11.03;100.00
66547;BME280;53400;50.364;14.874;2022-10-28T08:18:54;99656.03;;;11.06;100.00
66547;BME280;53400;50.364;14.874;2022-10-28T08:21:21;99664.19;;;10.92;100.00
66547;BME280;53400;50.364;14.874;2022-10-28T08:23:47;99662.59;;;11.10;100.00
66547;BME280;53400;50.364;14.874;2022-10-28T08:26:14;99668.72;;;11.35;100.00
66547;BME280;53400;50.364;14.874;2022-10-28T08:28:40;99670.09;;;11.56;100.00
66547;BME280;53400;50.364;14.874;2022-10-28T08:31:06;99652.19;;;11.87;100.00
66547;BME280;53400;50.364;14.874;2022-10-28T08:33:36;99649.22;;;12.07;100.00
66547;BME280;53400;50.364;14.874;2022-10-28T08:36:03;99646.53;;;12.07;100.00
66547;BME280;53400;50.364;14.874;2022-10-28T08:38:29;99659.44;;;11.98;100.00
66547;BME280;53400;50.364;14.874;2022-10-28T08:41:01;99675.34;;;11.51;100.00
66547;BME280;53400;50.364;14.874;2022-10-28T08:43:46;99672.09;;;11.61;100.00
66547;BME280;53400;50.364;14.874;2022-10-28T08:46:21;99668.91;;;12.01;100.00
66547;BME280;53400;50.364;14.874;2022-10-28T08:48:52;99666.66;;;11.86;100.00
66547;BME280;53400;50.364;14.874;2022-10-28T08:51:21;99665.66;;;11.80;100.00
66547;BME280;53400;50.364;14.874;2022-10-28T08:53:52;99655.53;;;12.12;100.00
66547;BME280;53400;50.364;14.874;2022-10-28T08:56:24;99657.78;;;12.27;100.00
66547;BME280;53400;50.364;14.874;2022-10-28T08:58:53;99661.91;;;12.53;100.00
66547;BME280;53400;50.364;14.874;2022-10-28T09:01:31;99663.66;;;12.71;100.00
66547;BME280;53400;50.364;14.874;2022-10-28T09:04:05;99675.13;;;12.55;100.00
66547;BME280;53400;50.364;14.874;2022-10-28T09:06:31;99674.44;;;12.83;100.00
66547;BME280;53400;50.364;14.874;2022-10-28T09:08:57;99669.13;;;13.35;100.00
66547;BME280;53400;50.364;14.874;2022-10-28T09:11:35;99664.97;;;13.27;100.00
66547;BME280;53400;50.364;14.874;2022-10-28T09:14:25;99670.09;;;13.29;100.00
66547;BME280;53400;50.364;14.874;2022-10-28T09:16:59;99678.22;;;13.58;100.00
66547;BME280;53400;50.364;14.874;2022-10-28T09:19:37;99679.19;;;13.51;100.00
66547;BME280;53400;50.364;14.874;2022-10-28T09:22:19;99674.84;;;13.39;100.00
66547;BME280;53400;50.364;14.874;2022-10-28T09:24:51;99672.44;;;13.25;100.00
66547;BME280;53400;50.364;14.874;2022-10-28T09:27:30;99675.16;;;13.54;100.00
66547;BME280;53400;50.364;14.874;2022-10-28T09:30:16;99679.81;;;13.70;100.00
66547;BME280;53400;50.364;14.874;2022-10-28T09:32:50;99673.69;;;13.75;100.00
66547;BME280;53400;50.364;14.874;2022-10-28T09:35:23;99668.06;;;13.48;100.00
66547;BME280;53400;50.364;14.874;2022-10-28T09:37:54;99663.78;;;13.75;100.00
66547;BME280;53400;50.364;14.874;2022-10-28T09:40:24;99665.63;;;13.11;100.00
66547;BME280;53400;50.364;14.874;2022-10-28T09:42:57;99667.66;;;13.27;100.00
66547;BME280;53400;50.364;14.874;2022-10-28T09:45:27;99670.34;;;13.27;100.00
66547;BME280;53400;50.364;14.874;2022-10-28T09:47:57;99659.97;;;13.48;100.00
66547;BME280;53400;50.364;14.874;2022-10-28T09:50:29;99655.59;;;13.18;100.00
66547;BME280;53400;50.364;14.874;2022-10-28T09:52:59;99661.47;;;12.92;100.00
66547;BME280;53400;50.364;14.874;2022-10-28T09:55:27;99660.28;;;12.76;100.00
66547;BME280;53400;50.364;14.874;2022-10-28T09:57:54;99660.50;;;12.74;100.00
66547;BME280;53400;50.364;14.874;2022-10-28T10:00:20;99664.38;;;12.90;100.00
66547;BME280;53400;50.364;14.874;2022-10-28T10:02:46;99659.09;;;12.95;100.00
66547;BME280;53400;50.364;14.874;2022-10-28T10:05:14;99660.38;;;13.16;100.00
66547;BME280;53400;50.364;14.874;2022-10-28T10:07:44;99659.72;;;13.61;100.00
66547;BME280;53400;50.364;14.874;2022-10-28T10:10:14;99653.72;;;13.71;100.00
66547;BME280;53400;50.364;14.874;2022-10-28T10:12:41;99653.78;;;13.88;100.00
66547;BME280;53400;50.364;14.874;2022-10-28T10:15:14;99659.75;;;13.78;100.00
66547;BME280;53400;50.364;14.874;2022-10-28T10:17:45;99663.44;;;13.60;100.00
66547;BME280;53400;50.364;14.874;2022-10-28T10:20:13;99655.22;;;13.79;100.00
66547;BME280;53400;50.364;14.874;2022-10-28T10:22:42;99652.88;;;13.99;100.00
66547;BME280;53400;50.364;14.874;2022-10-28T10:25:27;99651.53;;;14.13;100.00
66547;BME280;53400;50.364;14.874;2022-10-28T10:27:56;99648.50;;;14.10;100.00
66547;BME280;53400;50.364;14.874;2022-10-28T10:30:26;99659.91;;;14.00;100.00
66547;BME280;53400;50.364;14.874;2022-10-28T10:32:53;99652.38;;;14.31;100.00
66547;BME280;53400;50.364;14.874;2022-10-28T10:35:23;99655.16;;;14.53;100.00
66547;BME280;53400;50.364;14.874;2022-10-28T10:37:52;99652.53;;;14.41;100.00
66547;BME280;53400;50.364;14.874;2022-10-28T10:40:22;99653.59;;;14.57;99.65
66547;BME280;53400;50.364;14.874;2022-10-28T10:42:49;99654.16;;;14.42;100.00
66547;BME280;53400;50.364;14.874;2022-10-28T10:45:25;99652.78;;;14.56;100.00
66547;BME280;53400;50.364;14.874;2022-10-28T10:48:08;99650.97;;;14.79;100.00
66547;BME280;53400;50.364;14.874;2022-10-28T10:50:35;99655.09;;;15.03;97.68
66547;BME280;53400;50.364;14.874;2022-10-28T10:53:04;99640.56;;;15.26;99.93
66547;BME280;53400;50.364;14.874;2022-10-28T10:55:32;99636.78;;;15.27;94.63
66547;BME280;53400;50.364;14.874;2022-10-28T10:57:59;99639.13;;;15.19;93.88
66547;BME280;53400;50.364;14.874;2022-10-28T11:00:30;99623.81;;;15.24;95.19
66547;BME280;53400;50.364;14.874;2022-10-28T11:02:58;99614.97;;;15.07;97.13
66547;BME280;53400;50.364;14.874;2022-10-28T11:05:25;99610.59;;;14.84;99.23
66547;BME280;53400;50.364;14.874;2022-10-28T11:07:51;99611.34;;;14.79;97.17
66547;BME280;53400;50.364;14.874;2022-10-28T11:10:24;99607.03;;;15.00;96.72
66547;BME280;53400;50.364;14.874;2022-10-28T11:12:52;99600.81;;;15.00;97.76
66547;BME280;53400;50.364;14.874;2022-10-28T11:15:24;99600.72;;;15.11;96.62
66547;BME280;53400;50.364;14.874;2022-10-28T11:17:55;99594.28;;;15.40;95.55
66547;BME280;53400;50.364;14.874;2022-10-28T11:20:23;99590.84;;;15.44;95.74
66547;BME280;53400;50.364;14.874;2022-10-28T11:22:58;99579.41;;;15.10;96.75
66547;BME280;53400;50.364;14.874;2022-10-28T11:25:35;99577.63;;;15.21;97.35
66547;BME280;53400;50.364;14.874;2022-10-28T11:28:21;99576.84;;;15.47;96.79
66547;BME280;53400;50.364;14.874;2022-10-28T11:31:00;99582.34;;;15.57;95.46
66547;BME280;53400;50.364;14.874;2022-10-28T11:33:34;99576.94;;;15.57;94.07
66547;BME280;53400;50.364;14.874;2022-10-28T11:36:14;99563.56;;;15.41;94.03
66547;BME280;53400;50.364;14.874;2022-10-28T11:38:59;99556.41;;;15.29;97.42
66547;BME280;53400;50.364;14.874;2022-10-28T11:41:38;99558.13;;;15.13;97.13
66547;BME280;53400;50.364;14.874;2022-10-28T11:44:17;99553.81;;;15.40;95.44
66547;BME280;53400;50.364;14.874;2022-10-28T11:46:52;99557.28;;;15.35;94.07
66547;BME280;53400;50.364;14.874;2022-10-28T11:52:42;99554.84;;;15.60;94.53
66547;BME280;53400;50.364;14.874;2022-10-28T11:55:22;99555.38;;;15.85;94.38
66547;BME280;53400;50.364;14.874;2022-10-28T11:58:02;99549.97;;;15.85;92.37
66547;BME280;53400;50.364;14.874;2022-10-28T12:00:42;99553.00;;;15.93;93.00
66547;BME280;53400;50.364;14.874;2022-10-28T12:03:22;99551.63;;;15.91;92.69
66547;BME280;53400;50.364;14.874;2022-10-28T12:06:00;99545.28;;;15.75;91.38
66547;BME280;53400;50.364;14.874;2022-10-28T12:08:44;99551.91;;;15.89;90.77
66547;BME280;53400;50.364;14.874;2022-10-28T12:11:22;99546.53;;;15.94;90.39
66547;BME280;53400;50.364;14.874;2022-10-28T12:14:00;99547.16;;;16.01;91.00
66547;BME280;53400;50.364;14.874;2022-10-28T12:16:33;99541.97;;;15.95;90.52
66547;BME280;53400;50.364;14.874;2022-10-28T12:19:09;99537.59;;;16.26;90.52
66547;BME280;53400;50.364;14.874;2022-10-28T12:21:38;99532.09;;;16.16;90.07
66547;BME280;53400;50.364;14.874;2022-10-28T12:24:12;99525.47;;;16.34;88.48
66547;BME280;53400;50.364;14.874;2022-10-28T12:26:41;99526.03;;;16.36;88.85
66547;BME280;53400;50.364;14.874;2022-10-28T12:29:14;99532.63;;;16.13;88.05
66547;BME280;53400;50.364;14.874;2022-10-28T12:31:44;99525.00;;;16.04;89.18
66547;BME280;53400;50.364;14.874;2022-10-28T12:34:14;99525.00;;;16.04;90.77
66547;BME280;53400;50.364;14.874;2022-10-28T12:36:45;99519.56;;;15.99;89.78
66547;BME280;53400;50.364;14.874;2022-10-28T12:39:16;99516.69;;;16.11;88.49
66547;BME280;53400;50.364;14.874;2022-10-28T12:41:49;99521.69;;;16.29;87.06
66547;BME280;53400;50.364;14.874;2022-10-28T12:44:20;99517.72;;;16.47;85.05
66547;BME280;53400;50.364;14.874;2022-10-28T12:46:56;99512.13;;;16.17;85.06
66547;BME280;53400;50.364;14.874;2022-10-28T12:49:35;99513.84;;;16.33;85.70
66547;BME280;53400;50.364;14.874;2022-10-28T12:54:55;99513.22;;;16.63;86.42
66547;BME280;53400;50.364;14.874;2022-10-28T12:57:23;99494.31;;;16.73;84.48
66547;BME280;53400;50.364;14.874;2022-10-28T12:59:55;99495.13;;;16.69;85.07
66547;BME280;53400;50.364;14.874;2022-10-28T13:02:27;99501.09;;;16.71;85.24
66547;BME280;53400;50.364;14.874;2022-10-28T13:04:56;99511.00;;;16.55;85.53
66547;BME280;53400;50.364;14.874;2022-10-28T13:10:18;99511.06;;;16.65;85.82
66547;BME280;53400;50.364;14.874;2022-10-28T13:13:03;99504.78;;;16.49;86.84
66547;BME280;53400;50.364;14.874;2022-10-28T13:19:00;99513.31;;;16.36;86.59